Aktualne dane pomiarowe

Uwaga, wersja testowa! Automatyczne pobieranie danych za pomocą narzędzi lub skryptów to umożliwiających jest zabronione.

Dane meteo z obszaru Polski uzyskane na podstawie depesz SYNOP pobieranych co godzinę z NWS. Najedź myszką na symbol przedstawiony w tabeli, aby uzyskać informacje co do jego znaczenia. Prosimy pamiętać, że to testowa wersja strony, która jeszcze nie jest ukończona. Stworzono również jest krótki FAQ dotyczący korzystania z tej podstrony Anomalie temperatury w chwili obecnej odniesione są do okresu referencyjnego 1951-2016. Okres ten będzie później zmieniony na 1981-2010. Kliknij ikonę aby pobrać plik CSV. Kliknij ikonę aby wygenerować mapę synoptyczną dla danego terminu.

Wybierz Datę:    

        

Olsztyn (12272)

Dane terminowe dla wybranej stacji. Kliknij datę, aby otrzymać dane z tego terminu dla wszystkich stacji.

TemperaturaZachmurzenieWiatrCiśnienieOpadyPogoda
 Data t td wb tx tn tg rh  Nt Nl Cl Cm Ch ws wd g1 g2 wx mslp ppp ch 24h 12h t ww ww w1 w2  
2019-05-10 23:00:00 10.3 8.7 9.2--- 9010.0wx-wxwx1wx--11009.9 993.4 0.0---------
2019-05-10 22:00:00 9.9 8.3 8.8--- 9010.0wx-wxwx1wx--11010.2 993.7 0.7---------
2019-05-10 21:00:00 10.6 8.5 9.2--- 8712.0wx-wxwx3wx--31009.8 993.3 0.8---------
2019-05-10 20:00:00 11.3 8.5 9.5--- 8312.0wx-wx2wx--21009.9 993.4 1.3---------
2019-05-10 19:00:00 12.2 8.5 9.8--- 7815.0wx-wx2wx--21009.4 993.0 1.4---------
2019-05-10 18:00:00 13.6 8.2 10.3 15.8 10.3- 7020.0wx-wx2wx--21008.8 992.5 1.0- 0.112------
2019-05-10 17:00:00 14.9 8.1 10.8--- 6430.0wxwxwxwx3wx---1008.3 992.1 0.9---------
2019-05-10 16:00:00 15.5 8.0 11.1--- 6130.0wxwxwxwx2wx--21007.8 991.6 0.5---------
2019-05-10 15:00:00 15.1 7.9 10.8--- 6230.0wxwxwxwx1wx--11007.7 991.5 0.5---------
2019-05-10 14:00:00 15.5 7.8 11.0--- 6030.0wxwxwxwx2wx--21007.4 991.2 0.5---------
2019-05-10 13:00:00 15.0 8.0 10.8--- 6330.0wxwxwxwx3wx--31007.3 991.1 0.6---------
2019-05-10 12:00:00 13.1 8.0 10.0--- 7130.0wxwxwxwx2wx--21007.3 991.0 0.9- 0.16wx-w1--
2019-05-10 11:00:00 13.0 8.3 10.1--- 7325.0wxwxwxwx2wx--21007.0 990.7 1.1---------
2019-05-10 10:00:00 12.1 7.6 9.3--- 7420.0wxwxwxwx2wx---1006.9 990.5 1.1---wx---
2019-05-10 09:00:00 11.8 8.6 9.7--- 8113.0wxwxwxwx2wx--21006.5 990.1 0.8---wx-w1w2--
2019-05-10 08:00:00 11.2 8.2 9.3--- 8213.0wxwxwxwx3wx--31006.0 989.6 0.6---wx-w1w2--
2019-05-10 07:00:00 11.0 7.7 8.9--- 8015.0wxwxwxwx2wx--21005.8 989.4 0.7---wx-w1w2--
2019-05-10 06:00:00 10.3 7.4 8.4 13.4 9.5 9 8215.0wxwxwxwx2wx--21005.7 989.3 0.7 0.1 0.112wx---
2019-05-10 05:00:00 9.7 7.1 8.0--- 8420.0wxwxwxwx1wx--11005.5 989.0 0.6---wx---
2019-05-10 04:00:00 9.6 6.3 7.5--- 8030.0wxwxwx1wx--11005.2 988.7 0.4---------
2019-05-10 03:00:00 9.6 6.1 7.4--- 7935.0wxwxwx1wx--11005.1 988.6 0.0---------
2019-05-10 02:00:00 9.8 6.0 7.5--- 7740.0wxwxwx1wx--11004.9 988.4 -0.2---------
2019-05-10 01:00:00 9.7 6.6 7.7--- 8125.0wxwxwx2wx--21004.8 988.3 -0.4---------
2019-05-10 00:00:00 10.5 6.4 8.0--- 7630.0wxwxwx1wx--11005.0 988.6 -0.2- 0.06------
2019-05-09 23:00:00 10.7 6.4 8.1--- 7530.0wxwxwx2wx--21005.0 988.6 -0.2---------
2019-05-09 22:00:00 10.3 6.4 7.9--- 7730.0wxwxwx1wx--11005.1 988.7 0.0---------
2019-05-09 21:00:00 10.8 6.2 8.0--- 7325.0wxwxwx1wx--11005.2 988.8 0.3---------
2019-05-09 20:00:00 11.7 5.6 8.2--- 6635.0wxwxwx0---01005.2 988.8 0.9---------
2019-05-09 19:00:00 12.4 5.3 8.4--- 6240.0wxwxwx1wx--11005.0 988.7 0.9---------
2019-05-09 18:00:00 13.4 4.8 8.7 17.5 9.8- 5645.0wxwxwx3wx-1331004.7 988.5 0.6- 0.012------
2019-05-09 17:00:00 15.8 1.9 8.8--- 3925.0wxwxwxwx2wx--21004.0 987.9 -0.2---------
2019-05-09 16:00:00 16.3 1.6 8.9--- 3740.0wxwxwx4wx---1003.9 987.8 -0.8---------
2019-05-09 15:00:00 16.8 1.2 9.1--- 3545.0wxwxwx4wx-1341003.9 987.9 -0.9---------
2019-05-09 14:00:00 17.2 1.2 9.3--- 3435.0wxwxwxwx5wx-1151004.1 988.1 -1.3---------
2019-05-09 13:00:00 16.7 1.1 9.0--- 3530.0wxwxwxwx5wx-1351004.7 988.6 -1.2---------
2019-05-09 12:00:00 16.7 0.7 8.8--- 3435.0wxwxwxwx5wx101551004.9 988.8 -1.6- 0.06------
2019-05-09 11:00:00 16.5 1.0 8.8--- 3535.0wxwxwxwx6wx131461005.5 989.4 -1.5---------
2019-05-09 10:00:00 15.5 0.1 8.1--- 3535.0wx-wx7wx141571006.0 989.8 -1.6---------
2019-05-09 09:00:00 15.0 0.0 7.8--- 3630.0wx-wx7wx121471006.6 990.4 -1.5---------
2019-05-09 08:00:00 13.7 0.0 7.1--- 3930.0wx-wx8wx-1481007.2 990.9 -1.2---------
2019-05-09 07:00:00 12.3 -0.6 6.2--- 4135.0wx-wx5wx-1051007.8 991.4 -1.2---------
2019-05-09 06:00:00 9.8 -1.0 4.7 11.4 5.7 4 4740.0wx-wx5wx--51008.4 991.9 -1.1- 0.012------
2019-05-09 05:00:00 8.3 -1.8 3.6--- 4940.0wx-wxwx6wx--61008.7 992.1 -1.5---------
2019-05-09 04:00:00 6.9 -2.3 2.6--- 5250.0wx-wx4wx--41009.3 992.6 -1.6---------
2019-05-09 03:00:00 5.7 -2.2 1.9--- 5740.0wx-wx3wx--31009.8 993.0 -1.7---------
2019-05-09 02:00:00 6.6 -2.3 2.4--- 5350.0wx-wx3wx--31010.3 993.6 -1.6---------
2019-05-09 01:00:00 7.6 -2.7 2.9--- 4850.0wx-wx3wx--31010.9 994.2 -1.2---------
2019-05-09 00:00:00 7.7 -2.6 3.0--- 4850.0wx-wx4wx--41011.4 994.7 -0.9- 0.06------
3.6 ms

 

Print Friendly, PDF & Email